Time;durP1;ratioP1;P1;durP2;ratioP2;P2;SDS_P1;SDS_P2;PMS_P1;PMS_P2;Temp;Humidity;BMP_temperature;BMP_pressure;BME280_temperature;BME280_humidity;BME280_pressure;Samples;Min_cycle;Max_cycle;Signal;HPM_P1;HPM_P2
2022/07/02 00:00:19;;;;;;;3.40;2.05;;;14.70;99.90;;;;;;4897175;29;20049;-71
2022/07/02 00:02:49;;;;;;;3.03;2.22;;;14.70;99.90;;;;;;4897159;29;20131;-70
2022/07/02 00:05:22;;;;;;;3.20;1.85;;;14.70;99.90;;;;;;4899340;29;20110;-73
2022/07/02 00:07:49;;;;;;;3.47;2.05;;;14.70;99.90;;;;;;4900578;29;20094;-72
2022/07/02 00:10:14;;;;;;;4.30;2.10;;;14.70;99.90;;;;;;4899234;29;20049;-73
2022/07/02 00:12:40;;;;;;;4.45;1.80;;;14.70;99.90;;;;;;4900835;29;20060;-72
2022/07/02 00:15:07;;;;;;;4.72;2.20;;;14.60;99.90;;;;;;4900194;29;20505;-71
2022/07/02 00:17:33;;;;;;;2.15;1.88;;;14.70;99.90;;;;;;4900324;29;20056;-72
2022/07/02 00:20:02;;;;;;;3.53;1.90;;;14.70;99.90;;;;;;4899845;29;20049;-72
2022/07/02 00:22:28;;;;;;;3.45;2.28;;;14.70;99.90;;;;;;4899920;29;20052;-72
2022/07/02 00:24:54;;;;;;;3.35;1.70;;;14.70;99.90;;;;;;4900150;29;20056;-72
2022/07/02 00:27:20;;;;;;;2.95;2.22;;;14.60;99.90;;;;;;4899284;29;20041;-72
2022/07/02 00:29:54;;;;;;;2.50;1.70;;;14.60;99.90;;;;;;4900016;29;20088;-72
2022/07/02 00:32:20;;;;;;;3.95;1.90;;;14.60;99.90;;;;;;4898685;29;20482;-72
2022/07/02 00:34:46;;;;;;;2.67;1.83;;;14.70;99.90;;;;;;4898989;29;20052;-73
2022/07/02 00:37:13;;;;;;;3.42;1.75;;;14.60;99.90;;;;;;4899925;29;20044;-73
2022/07/02 00:39:40;;;;;;;2.70;1.90;;;14.60;99.90;;;;;;4899859;29;20056;-72
2022/07/02 00:42:08;;;;;;;2.13;1.80;;;14.60;99.90;;;;;;4883356;29;20135;-73
2022/07/02 00:44:35;;;;;;;3.35;2.08;;;14.50;99.90;;;;;;4899776;29;20048;-72
2022/07/02 00:47:06;;;;;;;2.65;2.00;;;14.50;99.90;;;;;;4898593;29;20048;-73
2022/07/02 00:49:33;;;;;;;3.55;2.00;;;14.50;99.90;;;;;;4898872;29;20100;-74
2022/07/02 00:52:00;;;;;;;2.97;2.22;;;14.40;99.90;;;;;;4899169;29;20048;-73
2022/07/02 00:54:26;;;;;;;3.40;2.08;;;14.40;99.90;;;;;;4899061;29;20056;-73
2022/07/02 00:56:53;;;;;;;2.67;1.70;;;14.40;99.90;;;;;;4899602;29;20049;-72
2022/07/02 00:59:23;;;;;;;2.97;1.92;;;14.40;99.90;;;;;;4899551;29;20562;-73
2022/07/02 01:01:49;;;;;;;2.97;2.22;;;14.30;99.90;;;;;;4899229;29;20522;-74
2022/07/02 01:04:16;;;;;;;4.90;2.63;;;14.30;99.90;;;;;;4899338;29;20071;-74
2022/07/02 01:06:43;;;;;;;3.00;1.90;;;14.30;99.90;;;;;;4898451;29;20107;-73
2022/07/02 01:12:00;;;;;;;3.40;1.98;;;14.30;99.90;;;;;;4899405;29;20063;-73
2022/07/02 01:14:27;;;;;;;2.92;1.90;;;14.20;99.90;;;;;;4899230;29;20060;-74
2022/07/02 01:16:53;;;;;;;2.55;1.80;;;14.20;99.90;;;;;;4899226;29;20056;-73
2022/07/02 01:19:21;;;;;;;4.20;2.03;;;14.20;99.90;;;;;;4899169;29;20263;-74
2022/07/02 01:22:20;;;;;;;2.72;2.03;;;14.20;99.90;;;;;;4898353;29;20497;-73
2022/07/02 01:24:53;;;;;;;2.92;2.10;;;14.20;99.90;;;;;;4899146;29;20135;-73
2022/07/02 01:27:21;;;;;;;4.38;2.28;;;14.10;99.90;;;;;;4899175;29;20044;-73
2022/07/02 01:29:47;;;;;;;3.53;1.85;;;14.10;99.90;;;;;;4897956;29;20156;-73
2022/07/02 01:32:14;;;;;;;2.40;1.98;;;14.10;99.90;;;;;;4898029;29;20189;-72
2022/07/02 01:34:45;;;;;;;3.50;1.80;;;14.10;99.90;;;;;;4898644;29;20481;-73
2022/07/02 01:37:13;;;;;;;3.77;2.30;;;14.10;99.90;;;;;;4899198;29;20136;-72
2022/07/02 01:39:41;;;;;;;4.55;1.83;;;14.10;99.90;;;;;;4898910;29;20131;-72
2022/07/02 01:42:07;;;;;;;5.38;2.10;;;14.00;99.90;;;;;;4897566;29;20482;-73
2022/07/02 01:44:34;;;;;;;2.88;1.90;;;14.00;99.90;;;;;;4897634;29;20044;-73
2022/07/02 01:47:05;;;;;;;3.80;2.17;;;14.00;99.90;;;;;;4898657;29;20052;-73
2022/07/02 01:49:32;;;;;;;2.60;2.10;;;14.00;99.90;;;;;;4882157;29;20521;-73
2022/07/02 01:51:58;;;;;;;3.55;2.13;;;13.90;99.90;;;;;;4898200;29;20401;-73
2022/07/02 01:54:23;;;;;;;3.92;1.60;;;13.90;99.90;;;;;;4898354;29;20056;-73
2022/07/02 01:56:49;;;;;;;4.68;2.30;;;13.90;99.90;;;;;;4898796;29;20148;-73
2022/07/02 01:59:15;;;;;;;4.03;1.95;;;13.90;99.90;;;;;;4897503;29;20052;-73
2022/07/02 02:01:41;;;;;;;4.00;2.28;;;13.80;99.90;;;;;;4898595;29;20101;-73
2022/07/02 02:04:07;;;;;;;2.15;1.95;;;13.80;99.90;;;;;;4897646;29;20056;-73
2022/07/02 02:06:33;;;;;;;3.78;2.03;;;13.80;99.90;;;;;;4898489;29;20049;-72
2022/07/02 02:08:59;;;;;;;2.28;1.88;;;13.80;99.90;;;;;;4898442;29;20048;-73
2022/07/02 02:11:25;;;;;;;3.58;2.13;;;13.80;99.90;;;;;;4897242;29;20155;-73
2022/07/02 02:13:51;;;;;;;2.20;2.00;;;13.70;99.90;;;;;;4898447;29;20052;-73
2022/07/02 02:16:17;;;;;;;2.55;1.83;;;13.70;99.90;;;;;;4901214;29;20502;-73
2022/07/02 02:18:43;;;;;;;3.97;2.00;;;13.70;99.90;;;;;;4904576;29;20048;-72
2022/07/02 02:21:10;;;;;;;3.78;1.98;;;13.70;99.90;;;;;;4902709;29;20410;-72
2022/07/02 02:23:36;;;;;;;3.78;2.00;;;13.70;99.90;;;;;;4903708;29;20056;-72
2022/07/02 02:26:02;;;;;;;4.68;1.83;;;13.70;99.90;;;;;;4904709;29;20052;-73
2022/07/02 02:28:27;;;;;;;3.35;2.00;;;13.70;99.90;;;;;;4904649;29;20059;-73
2022/07/02 02:30:53;;;;;;;5.65;2.28;;;13.70;99.90;;;;;;4904931;29;20381;-73
2022/07/02 02:33:19;;;;;;;3.45;2.38;;;13.70;99.90;;;;;;4904581;29;20051;-73
2022/07/02 02:35:45;;;;;;;3.60;2.05;;;13.70;99.90;;;;;;4904573;29;20135;-73
2022/07/02 02:38:10;;;;;;;5.13;2.17;;;13.70;99.90;;;;;;4904513;29;20059;-72
2022/07/02 02:40:36;;;;;;;3.45;1.83;;;13.70;99.90;;;;;;4904548;29;20048;-73
2022/07/02 02:43:02;;;;;;;3.17;2.05;;;13.70;99.90;;;;;;4904542;29;20048;-72
2022/07/02 02:45:28;;;;;;;4.63;2.17;;;13.70;99.90;;;;;;4903570;29;20044;-72
2022/07/02 02:47:53;;;;;;;4.65;2.17;;;13.60;99.90;;;;;;4904496;29;20041;-72
2022/07/02 02:50:19;;;;;;;3.20;2.00;;;13.60;99.90;;;;;;4902859;29;20401;-71
2022/07/02 02:52:44;;;;;;;3.72;2.25;;;13.60;99.90;;;;;;4904445;29;20071;-72
2022/07/02 02:55:10;;;;;;;2.92;2.10;;;13.60;99.90;;;;;;4903295;29;20056;-73
2022/07/02 02:57:36;;;;;;;3.58;2.10;;;13.60;99.90;;;;;;4904376;29;20101;-72
2022/07/02 03:00:02;;;;;;;3.05;2.22;;;13.60;99.90;;;;;;4903404;29;20107;-72
2022/07/02 03:02:28;;;;;;;4.70;2.47;;;13.60;99.90;;;;;;4904577;29;20060;-72
2022/07/02 03:04:53;;;;;;;3.28;2.35;;;13.60;99.90;;;;;;4904369;29;20052;-72
2022/07/02 03:07:19;;;;;;;6.93;2.45;;;13.60;99.90;;;;;;4903186;29;20107;-73
2022/07/02 03:09:44;;;;;;;4.82;2.60;;;13.60;99.90;;;;;;4903213;29;20477;-72
2022/07/02 03:12:11;;;;;;;5.63;2.50;;;13.50;99.90;;;;;;4904802;29;20378;-72
2022/07/02 03:14:36;;;;;;;3.22;2.30;;;13.50;99.90;;;;;;4887930;29;20151;-72
2022/07/02 03:17:02;;;;;;;3.80;2.30;;;13.50;99.90;;;;;;4904219;29;20087;-72
2022/07/02 03:19:28;;;;;;;4.10;2.63;;;13.50;99.90;;;;;;4904077;29;20067;-72
2022/07/02 03:21:54;;;;;;;4.30;2.50;;;13.50;99.90;;;;;;4903626;29;20074;-72
2022/07/02 03:24:20;;;;;;;3.00;2.10;;;13.50;99.90;;;;;;4904232;29;20044;-73
2022/07/02 03:26:45;;;;;;;4.38;2.22;;;13.40;99.90;;;;;;4903859;29;20045;-73
2022/07/02 03:29:11;;;;;;;3.03;2.63;;;13.40;99.90;;;;;;4900189;29;20446;-73
2022/07/02 03:31:37;;;;;;;3.47;2.63;;;13.40;99.90;;;;;;4884440;29;20048;-72
2022/07/02 03:34:03;;;;;;;4.78;2.42;;;13.40;99.90;;;;;;4899969;29;20048;-71
2022/07/02 03:36:29;;;;;;;4.28;2.50;;;13.40;99.90;;;;;;4899984;29;20071;-72
2022/07/02 03:38:55;;;;;;;4.40;2.60;;;13.40;99.90;;;;;;4901059;29;20069;-72
2022/07/02 03:41:20;;;;;;;5.78;2.40;;;13.50;99.90;;;;;;4900065;29;20052;-72
2022/07/02 03:43:49;;;;;;;3.38;2.40;;;13.50;99.90;;;;;;4899971;29;20048;-73
2022/07/02 03:46:16;;;;;;;4.82;2.50;;;13.50;99.90;;;;;;4899949;29;20056;-72
2022/07/02 03:48:42;;;;;;;4.57;2.58;;;13.50;99.90;;;;;;4899717;29;20131;-71
2022/07/02 03:51:08;;;;;;;4.85;2.30;;;13.50;99.90;;;;;;4900196;29;20060;-71
2022/07/02 03:53:34;;;;;;;5.43;2.65;;;13.50;99.90;;;;;;4899742;29;20051;-71
2022/07/02 03:55:59;;;;;;;5.00;2.50;;;13.50;99.90;;;;;;4900719;29;20045;-71
2022/07/02 03:58:25;;;;;;;5.05;3.17;;;13.50;99.90;;;;;;4900997;29;20056;-72
2022/07/02 04:00:51;;;;;;;4.25;2.80;;;13.50;99.90;;;;;;4899632;29;20504;-72
2022/07/02 04:03:16;;;;;;;7.10;3.20;;;13.50;99.90;;;;;;4900570;29;20048;-71
2022/07/02 04:05:42;;;;;;;6.25;2.92;;;13.60;99.90;;;;;;4900488;29;20052;-71
2022/07/02 04:08:08;;;;;;;4.70;2.92;;;13.50;99.90;;;;;;4899375;29;20100;-72
2022/07/02 04:10:34;;;;;;;5.85;3.00;;;13.60;99.90;;;;;;4900105;29;20119;-72
2022/07/02 04:12:59;;;;;;;3.67;2.63;;;13.50;99.90;;;;;;4900534;29;20100;-72
2022/07/02 04:15:25;;;;;;;6.15;3.25;;;13.60;99.90;;;;;;4900411;29;20053;-72
2022/07/02 04:17:50;;;;;;;6.43;3.50;;;13.70;99.90;;;;;;4883715;29;20063;-72
2022/07/02 04:20:16;;;;;;;6.95;3.30;;;13.60;99.90;;;;;;4899853;29;20060;-71
2022/07/02 04:22:42;;;;;;;5.05;3.20;;;13.70;99.90;;;;;;4899729;29;20052;-71
2022/07/02 04:25:08;;;;;;;5.05;3.20;;;13.70;99.90;;;;;;4883603;29;20060;-71
2022/07/02 04:27:34;;;;;;;4.40;3.30;;;13.70;99.90;;;;;;4900110;29;20417;-72
2022/07/02 04:30:00;;;;;;;6.43;3.40;;;13.70;99.90;;;;;;4898906;29;20095;-72
2022/07/02 04:32:25;;;;;;;7.75;3.90;;;13.70;99.90;;;;;;4898894;29;20084;-72
2022/07/02 04:34:51;;;;;;;4.15;3.40;;;13.70;99.90;;;;;;4900868;29;20059;-72
2022/07/02 04:37:17;;;;;;;5.32;3.42;;;13.80;99.90;;;;;;4900057;29;20417;-71
2022/07/02 04:39:43;;;;;;;5.97;3.92;;;13.80;99.90;;;;;;4883063;29;20052;-71
2022/07/02 04:42:09;;;;;;;4.82;3.55;;;13.80;99.90;;;;;;4898713;29;20049;-72
2022/07/02 04:44:34;;;;;;;4.95;3.60;;;13.80;99.90;;;;;;4898656;29;20059;-72
2022/07/02 04:47:00;;;;;;;4.57;3.28;;;13.80;99.90;;;;;;4899801;29;20044;-72
2022/07/02 04:49:26;;;;;;;3.50;3.20;;;13.90;99.90;;;;;;4898591;29;20063;-71
2022/07/02 04:51:51;;;;;;;3.95;3.42;;;13.90;99.90;;;;;;4899090;29;20131;-72
2022/07/02 04:54:17;;;;;;;5.78;3.95;;;13.90;99.90;;;;;;4900370;29;20533;-73
2022/07/02 04:56:43;;;;;;;6.10;3.25;;;14.00;99.90;;;;;;4899660;29;20552;-72
2022/07/02 04:59:09;;;;;;;5.40;3.55;;;14.10;99.90;;;;;;4899674;29;20434;-72
2022/07/02 05:01:34;;;;;;;4.82;4.30;;;14.00;99.90;;;;;;4899274;29;20112;-72
2022/07/02 05:04:00;;;;;;;7.47;4.45;;;14.00;99.90;;;;;;4882971;29;20059;-72
2022/07/02 05:06:26;;;;;;;6.13;4.03;;;14.10;99.90;;;;;;4898457;29;20053;-72
2022/07/02 05:08:52;;;;;;;6.97;4.35;;;14.20;99.90;;;;;;4899339;29;20052;-72
2022/07/02 05:11:19;;;;;;;6.70;5.20;;;14.10;99.90;;;;;;4898150;29;20546;-73
2022/07/02 05:13:48;;;;;;;5.97;5.00;;;14.20;99.90;;;;;;4883020;29;20071;-73
2022/07/02 05:16:15;;;;;;;5.18;4.68;;;14.20;99.90;;;;;;4899781;29;20048;-72
2022/07/02 05:18:41;;;;;;;7.45;5.35;;;14.20;99.90;;;;;;4897934;29;20079;-72
2022/07/02 05:21:07;;;;;;;9.40;5.60;;;14.30;99.90;;;;;;4898594;29;20053;-72
2022/07/02 05:23:33;;;;;;;6.70;5.03;;;14.30;99.90;;;;;;4899136;29;20044;-72
2022/07/02 05:25:58;;;;;;;6.10;5.50;;;14.30;99.90;;;;;;4898848;29;20048;-72
2022/07/02 05:28:24;;;;;;;5.65;5.05;;;14.40;99.90;;;;;;4899062;29;20051;-72
2022/07/02 05:30:51;;;;;;;6.22;5.50;;;14.40;99.90;;;;;;4898934;29;20104;-73
2022/07/02 05:33:17;;;;;;;5.32;4.82;;;14.40;99.90;;;;;;4898954;29;20088;-73
2022/07/02 05:35:43;;;;;;;6.75;5.10;;;14.50;99.90;;;;;;4897859;29;20059;-72
2022/07/02 05:38:09;;;;;;;9.05;5.65;;;14.50;99.90;;;;;;4898570;29;20135;-72
2022/07/02 05:40:34;;;;;;;6.25;5.13;;;14.60;99.90;;;;;;4898894;29;20044;-73
2022/07/02 05:43:01;;;;;;;7.13;5.63;;;14.60;99.90;;;;;;4898149;29;20078;-73
2022/07/02 05:45:27;;;;;;;4.70;4.25;;;14.60;99.90;;;;;;4898876;29;20052;-73
2022/07/02 05:47:52;;;;;;;5.20;4.70;;;14.70;99.90;;;;;;4897872;29;20055;-73
2022/07/02 05:50:19;;;;;;;6.75;4.82;;;14.70;99.90;;;;;;4897259;29;20052;-73
2022/07/02 05:52:45;;;;;;;6.15;5.00;;;14.80;99.90;;;;;;4897949;29;20059;-73
2022/07/02 05:55:11;;;;;;;7.75;4.85;;;14.80;99.90;;;;;;4898625;29;20088;-73
2022/07/02 05:57:37;;;;;;;7.20;5.07;;;14.90;99.90;;;;;;4898807;29;20127;-72
2022/07/02 06:00:05;;;;;;;6.20;5.10;;;14.90;99.90;;;;;;4898688;29;20076;-72
2022/07/02 06:02:31;;;;;;;7.63;4.53;;;14.90;99.90;;;;;;4899118;29;20401;-72
2022/07/02 06:04:56;;;;;;;6.55;4.45;;;15.00;99.90;;;;;;4897609;29;20044;-74
2022/07/02 06:07:40;;;;;;;5.43;4.30;;;15.00;99.90;;;;;;4898553;29;20044;-73
2022/07/02 06:10:07;;;;;;;4.53;4.10;;;15.10;99.90;;;;;;4898500;29;20406;-73
2022/07/02 06:12:33;;;;;;;5.90;4.15;;;15.10;99.90;;;;;;4881986;29;20057;-72
2022/07/02 06:14:58;;;;;;;5.13;3.95;;;15.20;99.90;;;;;;4882078;29;20052;-72
2022/07/02 06:17:24;;;;;;;5.38;3.45;;;15.20;99.90;;;;;;4898355;29;20049;-72
2022/07/02 06:19:51;;;;;;;5.78;3.28;;;15.30;99.90;;;;;;4898416;29;20052;-72
2022/07/02 06:22:17;;;;;;;5.30;3.40;;;15.30;99.90;;;;;;4896643;29;20060;-73
2022/07/02 06:24:45;;;;;;;5.43;3.28;;;15.30;99.90;;;;;;4897137;29;20044;-72
2022/07/02 06:27:11;;;;;;;5.25;3.22;;;15.40;99.90;;;;;;4898405;29;20206;-72
2022/07/02 06:29:37;;;;;;;5.40;3.05;;;15.40;99.90;;;;;;4898346;29;20127;-72
2022/07/02 06:32:04;;;;;;;4.55;2.47;;;15.50;99.90;;;;;;4881615;29;20136;-72
2022/07/02 06:34:29;;;;;;;6.13;2.80;;;15.50;99.90;;;;;;4897983;29;20496;-71
2022/07/02 06:36:55;;;;;;;5.68;2.75;;;15.60;99.90;;;;;;4898223;29;20048;-72
2022/07/02 06:39:20;;;;;;;5.13;2.53;;;15.60;99.90;;;;;;4898294;29;20057;-72
2022/07/02 06:44:30;;;;;;;7.22;2.17;;;15.70;99.90;;;;;;4897403;29;20061;-72
2022/07/02 06:46:56;;;;;;;2.88;2.03;;;15.80;99.90;;;;;;4897983;29;20139;-72
2022/07/02 06:49:21;;;;;;;2.95;1.70;;;15.90;99.90;;;;;;4897078;29;20049;-71
2022/07/02 06:51:47;;;;;;;4.05;1.60;;;15.90;99.90;;;;;;4897559;29;20049;-72
2022/07/02 06:54:13;;;;;;;2.47;1.55;;;16.00;99.90;;;;;;4896860;29;20382;-72
2022/07/02 06:56:38;;;;;;;2.17;1.10;;;16.00;99.90;;;;;;4897063;29;20040;-72
2022/07/02 06:59:05;;;;;;;3.47;1.27;;;16.10;99.90;;;;;;4898176;29;20188;-72
2022/07/02 07:01:31;;;;;;;3.20;1.20;;;16.10;99.90;;;;;;4897098;29;20196;-72
2022/07/02 07:03:57;;;;;;;2.70;1.00;;;16.10;99.90;;;;;;4900551;29;20052;-71
2022/07/02 07:06:24;;;;;;;2.42;0.95;;;16.20;99.90;;;;;;4901882;29;20056;-72
2022/07/02 07:08:53;;;;;;;3.28;0.95;;;16.30;99.90;;;;;;4901594;29;20052;-73
2022/07/02 07:11:22;;;;;;;3.10;1.08;;;16.30;99.90;;;;;;4900161;29;20104;-71
2022/07/02 07:13:49;;;;;;;0.88;0.80;;;16.40;99.90;;;;;;4900434;29;20055;-71
2022/07/02 07:16:15;;;;;;;2.80;0.80;;;16.40;99.90;;;;;;4901377;29;20056;-72
2022/07/02 07:18:44;;;;;;;1.83;0.70;;;16.50;99.90;;;;;;4901177;29;20052;-69
2022/07/02 07:21:10;;;;;;;2.45;1.05;;;16.50;99.90;;;;;;4899560;29;20490;-72
2022/07/02 07:23:35;;;;;;;1.83;0.70;;;16.50;99.90;;;;;;4901259;29;20045;-72
2022/07/02 07:26:01;;;;;;;2.28;0.82;;;16.60;99.90;;;;;;4901262;29;20104;-71
2022/07/02 07:28:27;;;;;;;1.80;0.57;;;16.70;99.90;;;;;;4899902;29;20135;-71
2022/07/02 07:30:56;;;;;;;1.65;0.55;;;16.70;99.90;;;;;;4899600;29;20052;-70
2022/07/02 07:33:22;;;;;;;1.88;0.70;;;16.80;99.90;;;;;;4884634;29;20100;-72
2022/07/02 07:35:48;;;;;;;4.43;0.52;;;16.80;99.90;;;;;;4900631;29;20119;-73
2022/07/02 07:38:13;;;;;;;2.17;0.70;;;16.90;99.90;;;;;;4899937;29;20052;-70
2022/07/02 07:40:39;;;;;;;1.15;0.60;;;16.90;99.90;;;;;;4901491;29;20104;-73
2022/07/02 07:43:05;;;;;;;3.33;0.60;;;17.00;99.90;;;;;;4901199;29;20504;-72
2022/07/02 07:45:30;;;;;;;1.45;0.73;;;17.10;99.90;;;;;;4901093;29;20076;-70
2022/07/02 07:47:56;;;;;;;2.30;0.60;;;17.10;99.90;;;;;;4901485;29;20495;-72
2022/07/02 07:50:22;;;;;;;2.72;0.60;;;17.10;99.90;;;;;;4901339;29;20414;-72
2022/07/02 07:52:48;;;;;;;2.40;0.60;;;17.20;99.90;;;;;;4900464;29;20053;-71
2022/07/02 07:55:14;;;;;;;1.65;0.50;;;17.30;99.90;;;;;;4901331;29;20437;-71
2022/07/02 07:57:40;;;;;;;1.73;0.73;;;17.40;99.90;;;;;;4900894;29;20044;-73
2022/07/02 08:00:06;;;;;;;1.92;0.50;;;17.40;99.90;;;;;;4900871;29;20363;-71
2022/07/02 08:02:32;;;;;;;3.47;0.60;;;17.50;99.90;;;;;;4900543;29;20088;-71
2022/07/02 08:04:58;;;;;;;1.00;0.50;;;17.60;99.90;;;;;;4900014;29;20048;-71
2022/07/02 08:07:24;;;;;;;1.42;0.60;;;17.70;99.90;;;;;;4899565;29;20148;-74
2022/07/02 08:09:53;;;;;;;2.22;0.60;;;17.70;99.90;;;;;;4899786;29;20374;-72
2022/07/02 08:12:21;;;;;;;1.95;0.55;;;17.80;99.90;;;;;;4900788;29;20091;-73
2022/07/02 08:14:47;;;;;;;0.50;0.40;;;17.90;99.90;;;;;;4899956;29;20075;-74
2022/07/02 08:17:14;;;;;;;3.20;0.55;;;17.90;99.90;;;;;;4896170;29;20060;-72
2022/07/02 08:19:39;;;;;;;2.05;0.50;;;18.00;99.90;;;;;;4896930;29;20167;-71
2022/07/02 08:22:05;;;;;;;2.10;0.60;;;18.10;99.90;;;;;;4898164;29;20573;-73
2022/07/02 08:24:31;;;;;;;0.65;0.50;;;18.10;99.90;;;;;;4900468;29;20059;-75
2022/07/02 08:26:57;;;;;;;1.10;0.57;;;18.20;99.90;;;;;;4899258;29;20052;-73
2022/07/02 08:29:23;;;;;;;1.48;0.50;;;18.20;99.90;;;;;;4900078;29;20070;-76
2022/07/02 08:31:48;;;;;;;0.73;0.30;;;18.30;99.90;;;;;;4899493;29;20056;-73
2022/07/02 08:34:14;;;;;;;1.67;0.40;;;18.30;99.90;;;;;;4900405;29;20053;-72
2022/07/02 08:36:40;;;;;;;0.82;0.40;;;18.40;99.90;;;;;;4883636;29;20087;-74
2022/07/02 08:39:06;;;;;;;2.65;0.50;;;18.50;99.90;;;;;;4899230;29;20056;-75
2022/07/02 08:41:32;;;;;;;1.02;0.30;;;18.50;99.90;;;;;;4900118;29;20048;-74
2022/07/02 08:44:01;;;;;;;0.93;0.50;;;18.60;99.90;;;;;;4898887;29;20056;-73
2022/07/02 08:46:29;;;;;;;3.53;0.40;;;18.60;99.90;;;;;;4900075;29;20049;-73
2022/07/02 08:48:57;;;;;;;3.22;0.40;;;18.70;99.90;;;;;;4900057;29;20044;-72
2022/07/02 08:51:23;;;;;;;1.55;0.40;;;18.80;99.90;;;;;;4898293;29;20148;-71
2022/07/02 08:53:49;;;;;;;1.40;0.30;;;18.80;99.90;;;;;;4899881;29;20088;-72
2022/07/02 08:56:16;;;;;;;0.50;0.30;;;18.80;99.90;;;;;;4899912;29;20136;-71
2022/07/02 08:58:44;;;;;;;1.02;0.40;;;18.90;99.90;;;;;;4899888;29;20052;-72
2022/07/02 09:01:11;;;;;;;0.55;0.30;;;18.90;99.90;;;;;;4899788;29;20112;-72
2022/07/02 09:03:39;;;;;;;1.15;0.38;;;18.90;99.90;;;;;;4898805;29;20442;-71
2022/07/02 09:06:06;;;;;;;0.73;0.30;;;19.00;99.90;;;;;;4899813;29;20107;-73
2022/07/02 09:08:33;;;;;;;4.20;0.38;;;19.80;99.90;;;;;;4895966;29;20047;-72
2022/07/02 09:11:03;;;;;;;0.93;0.30;;;19.10;99.90;;;;;;4888481;29;20405;-73
2022/07/02 09:13:29;;;;;;;0.90;0.30;;;19.10;99.90;;;;;;4888600;29;20087;-73
2022/07/02 09:15:55;;;;;;;1.77;0.17;;;19.20;99.90;;;;;;4889035;29;20060;-75
2022/07/02 09:18:21;;;;;;;1.40;0.30;;;19.20;99.90;;;;;;4890186;29;20051;-74
2022/07/02 09:20:47;;;;;;;0.60;0.28;;;19.30;99.90;;;;;;4888511;29;20053;-73
2022/07/02 09:23:21;;;;;;;0.22;0.22;;;19.30;99.90;;;;;;4903573;29;20056;-73
2022/07/02 09:25:48;;;;;;;1.10;0.30;;;19.40;99.90;;;;;;4888316;29;20052;-74
2022/07/02 09:28:15;;;;;;;1.27;0.25;;;19.40;99.90;;;;;;4891363;29;20100;-73
2022/07/02 09:30:41;;;;;;;0.98;0.20;;;19.40;99.90;;;;;;4890426;29;20076;-73
2022/07/02 09:33:35;;;;;;;1.58;0.25;;;19.50;99.90;;;;;;4887867;29;20053;-71
2022/07/02 09:36:10;;;;;;;1.65;0.30;;;19.50;99.90;;;;;;4890638;29;20092;-74
2022/07/02 09:38:47;;;;;;;1.35;0.20;;;19.50;99.90;;;;;;4887879;29;20053;-73
2022/07/02 09:41:14;;;;;;;0.68;0.30;;;19.60;99.90;;;;;;4890337;29;20560;-75
2022/07/02 09:43:41;;;;;;;0.77;0.20;;;19.70;99.90;;;;;;4888485;29;20049;-76
2022/07/02 09:46:19;;;;;;;0.93;0.20;;;19.70;99.90;;;;;;4883473;29;20088;-74
2022/07/02 09:48:46;;;;;;;0.40;0.20;;;19.70;99.90;;;;;;4884918;29;20079;-75
2022/07/02 09:51:14;;;;;;;0.28;0.20;;;19.80;99.90;;;;;;4880065;29;20130;-74
2022/07/02 09:53:51;;;;;;;2.88;0.20;;;19.80;99.90;;;;;;4901448;29;20100;-73
2022/07/02 09:56:17;;;;;;;0.22;0.20;;;19.80;99.90;;;;;;4886027;29;20142;-73
2022/07/02 09:58:42;;;;;;;0.17;0.10;;;19.90;99.90;;;;;;4885614;29;20108;-73
2022/07/02 10:01:08;;;;;;;0.50;0.20;;;19.90;99.90;;;;;;4875223;29;20052;-77
2022/07/02 10:03:48;;;;;;;1.55;0.30;;;20.00;99.90;;;;;;4883677;29;20506;-74
2022/07/02 10:06:14;;;;;;;0.20;0.20;;;20.00;99.90;;;;;;4891439;29;20048;-73
2022/07/02 10:08:41;;;;;;;0.52;0.20;;;20.10;99.90;;;;;;4888040;29;20055;-75
2022/07/02 10:11:12;;;;;;;0.50;0.20;;;20.10;99.90;;;;;;4897251;29;20757;-76
2022/07/02 10:13:40;;;;;;;1.55;0.20;;;20.20;99.90;;;;;;4885483;29;20045;-73
2022/07/02 10:16:13;;;;;;;1.13;0.22;;;20.20;99.30;;;;;;4885715;29;20385;-74
2022/07/02 10:18:39;;;;;;;;;;;20.20;99.40;;;;;;4883293;29;20053;-73
2022/07/02 10:21:06;;;;;;;1.38;0.20;;;20.30;99.90;;;;;;4887415;29;19953;-73
2022/07/02 10:23:34;;;;;;;0.38;0.20;;;20.30;99.90;;;;;;4890098;29;20053;-72
2022/07/02 10:25:59;;;;;;;0.73;0.20;;;20.40;99.90;;;;;;4887520;29;20044;-73
2022/07/02 10:28:26;;;;;;;1.73;0.30;;;20.50;99.90;;;;;;4889379;29;20070;-74
2022/07/02 10:30:55;;;;;;;1.30;0.25;;;20.50;99.50;;;;;;4885141;29;20428;-74
2022/07/02 10:33:44;;;;;;;1.67;0.20;;;20.60;98.70;;;;;;4887643;29;20045;-73
2022/07/02 10:36:13;;;;;;;1.75;0.20;;;20.60;98.20;;;;;;4887469;29;20052;-73
2022/07/02 10:38:39;;;;;;;1.75;1.65;;;20.70;98.40;;;;;;4884456;29;20081;-71
2022/07/02 10:41:07;;;;;;;0.52;0.20;;;20.70;98.40;;;;;;4887922;29;20044;-72
2022/07/02 10:43:39;;;;;;;0.57;0.20;;;20.80;98.40;;;;;;4876151;29;20093;-73
2022/07/02 10:46:10;;;;;;;0.57;0.20;;;20.80;98.30;;;;;;4888024;29;20060;-73
2022/07/02 10:48:47;;;;;;;2.53;0.30;;;20.80;98.10;;;;;;4890169;29;20128;-72
2022/07/02 10:51:27;;;;;;;0.73;0.10;;;20.80;98.30;;;;;;4893820;29;20300;-71
2022/07/02 10:54:00;;;;;;;1.08;0.35;;;20.70;96.90;;;;;;4889498;29;20052;-72
2022/07/02 10:56:41;;;;;;;1.38;0.30;;;20.70;96.70;;;;;;4892461;29;20057;-72
2022/07/02 10:59:25;;;;;;;0.75;0.28;;;20.70;96.70;;;;;;4891432;29;20048;-73
2022/07/02 11:02:05;;;;;;;1.65;0.30;;;20.70;98.10;;;;;;4891928;29;20509;-73
2022/07/02 11:04:32;;;;;;;0.77;0.20;;;20.70;98.20;;;;;;4887924;29;20140;-73
2022/07/02 11:07:12;;;;;;;0.65;0.20;;;20.80;97.40;;;;;;4885814;29;20084;-73
2022/07/02 11:09:49;;;;;;;0.70;0.30;;;20.60;96.40;;;;;;4881766;29;20040;-73
2022/07/02 11:12:26;;;;;;;0.30;0.20;;;20.50;96.30;;;;;;4891259;29;20079;-75
2022/07/02 11:14:54;;;;;;;1.58;0.25;;;20.50;98.20;;;;;;4891176;29;20127;-74
2022/07/02 11:17:26;;;;;;;1.13;0.30;;;20.50;97.40;;;;;;4887546;29;20049;-72
2022/07/02 11:19:55;;;;;;;1.63;0.35;;;20.50;97.10;;;;;;4887499;29;20061;-71
2022/07/02 11:22:22;;;;;;;0.25;0.20;;;20.50;97.90;;;;;;4887361;29;20057;-73
2022/07/02 11:24:49;;;;;;;3.35;0.40;;;20.50;97.50;;;;;;4905991;29;20123;-72
2022/07/02 11:27:15;;;;;;;0.30;0.20;;;20.50;98.30;;;;;;4904959;29;20449;-74
2022/07/02 11:29:54;;;;;;;0.50;0.20;;;20.50;98.00;;;;;;4883321;29;20136;-73
2022/07/02 11:32:21;;;;;;;2.08;0.30;;;20.60;97.90;;;;;;4880143;29;20053;-70
2022/07/02 11:34:56;;;;;;;2.85;0.22;;;20.40;97.60;;;;;;4886025;29;20052;-74
2022/07/02 11:37:22;;;;;;;0.98;0.20;;;20.90;97.10;;;;;;4892428;29;20052;-72
2022/07/02 11:39:48;;;;;;;0.40;0.15;;;21.00;96.60;;;;;;4891049;29;20395;-72
2022/07/02 11:42:13;;;;;;;0.60;0.30;;;21.10;96.60;;;;;;4888804;29;20053;-73
2022/07/02 11:44:39;;;;;;;0.95;0.20;;;21.20;96.10;;;;;;4904525;29;20063;-72
2022/07/02 11:47:05;;;;;;;0.30;0.20;;;21.30;95.80;;;;;;4902827;29;20036;-72
2022/07/02 11:49:38;;;;;;;1.15;0.25;;;21.40;96.00;;;;;;4885853;29;20317;-72
2022/07/02 11:52:06;;;;;;;0.15;0.10;;;21.50;95.40;;;;;;4887239;29;20056;-73
2022/07/02 11:54:31;;;;;;;0.98;0.20;;;21.50;95.30;;;;;;4906249;29;20052;-72
2022/07/02 11:56:57;;;;;;;0.30;0.20;;;21.60;94.90;;;;;;4890024;29;20044;-73
2022/07/02 11:59:25;;;;;;;3.00;0.30;;;21.80;94.80;;;;;;4892681;29;20049;-73
2022/07/02 12:01:52;;;;;;;0.47;0.20;;;21.80;94.90;;;;;;4892278;29;20080;-72
2022/07/02 12:04:22;;;;;;;0.75;0.30;;;21.80;94.20;;;;;;4899384;29;20052;-72
2022/07/02 12:06:50;;;;;;;0.25;0.20;;;21.70;95.20;;;;;;4915420;29;20052;-73
2022/07/02 12:09:18;;;;;;;0.50;0.20;;;21.70;94.60;;;;;;4900724;29;20572;-73
2022/07/02 12:11:47;;;;;;;1.85;0.22;;;21.70;94.10;;;;;;4900643;29;20052;-71
2022/07/02 12:14:14;;;;;;;0.47;0.20;;;21.80;93.50;;;;;;4900634;29;20108;-72
2022/07/02 12:16:43;;;;;;;1.02;0.20;;;21.80;93.60;;;;;;4901006;29;20199;-71
2022/07/02 12:19:11;;;;;;;1.00;0.30;;;21.80;94.00;;;;;;4900134;29;20060;-71
2022/07/02 12:21:38;;;;;;;0.82;0.20;;;21.90;93.70;;;;;;4899914;29;20537;-71
2022/07/02 12:24:18;;;;;;;0.47;0.20;;;21.80;93.70;;;;;;4900469;29;20135;-72
2022/07/02 12:26:45;;;;;;;1.08;0.30;;;21.80;93.80;;;;;;4900452;29;20055;-72
2022/07/02 12:32:07;;;;;;;1.58;0.20;;;21.80;94.30;;;;;;4900503;29;20426;-71
2022/07/02 12:34:39;;;;;;;0.75;0.20;;;21.90;94.40;;;;;;4900607;29;20048;-71
2022/07/02 12:37:04;;;;;;;0.60;0.30;;;22.00;93.50;;;;;;4915019;29;20053;-72
2022/07/02 12:39:43;;;;;;;1.35;0.30;;;22.10;94.00;;;;;;4899254;29;20052;-71
2022/07/02 12:42:20;;;;;;;0.77;0.30;;;22.20;94.70;;;;;;4914771;29;20051;-71
2022/07/02 12:44:55;;;;;;;1.33;0.32;;;22.20;94.30;;;;;;4900081;29;20083;-73
2022/07/02 12:47:23;;;;;;;1.35;0.32;;;22.30;94.10;;;;;;4900030;29;20049;-71
2022/07/02 12:49:57;;;;;;;1.15;0.30;;;22.30;94.20;;;;;;4899966;29;20147;-72
2022/07/02 12:52:24;;;;;;;1.23;0.40;;;22.40;94.30;;;;;;4899559;29;20055;-72
2022/07/02 12:54:49;;;;;;;0.75;0.30;;;22.40;94.20;;;;;;4899908;29;20061;-73
2022/07/02 12:57:16;;;;;;;1.05;0.40;;;22.50;93.10;;;;;;4898576;29;20053;-71